Uhta, Russia
Current Conditions -  °F | °C
As of 12:00 AM on Friday 24 Oct 2014 (Local Time) from UUYY Reporting Station
Broken Clouds Broken Clouds  
Wind Chill: -2°   Ceiling: 6600
Heat Index: 12°   Visibility: 6mi
Dew Point:   Wind: 11mph
Humidity: 79%   Direction: 360°N
Pressure: 30.18"   Gusts: 18mph
Location:  63.56°N, 53.69°E
Report Text: UUYY 232100Z 36005G08MPS 9000 BKN066 M11/M14 Q1022 NOSIG0182//49 RMK QFE757/1010
Loading
Personal Weather Stations






























Interactive Weather Map
Tropical Storm Tracking
New forecast layout! Learn more

10-Day Weather Forecast

Advertisements
Track Severe Weather on mobile